sensor_id;sensor_type;location;lat;lon;timestamp;P1;durP1;ratioP1;P2;durP2;ratioP2
67514;SDS011;60646;55.802;37.032;2022-08-19T00:01:36;3.70;;;2.22;;
67514;SDS011;60646;55.802;37.032;2022-08-19T00:04:04;4.07;;;2.45;;
67514;SDS011;60646;55.802;37.032;2022-08-19T00:06:31;5.10;;;2.47;;
67514;SDS011;60646;55.802;37.032;2022-08-19T00:08:58;9.02;;;2.42;;
67514;SDS011;60646;55.802;37.032;2022-08-19T00:11:25;4.65;;;2.40;;
67514;SDS011;60646;55.802;37.032;2022-08-19T00:13:53;7.15;;;2.50;;
67514;SDS011;60646;55.802;37.032;2022-08-19T00:16:20;4.63;;;2.60;;
67514;SDS011;60646;55.802;37.032;2022-08-19T00:18:47;4.18;;;2.72;;
67514;SDS011;60646;55.802;37.032;2022-08-19T00:21:12;7.22;;;2.92;;
67514;SDS011;60646;55.802;37.032;2022-08-19T00:23:39;6.35;;;2.83;;
67514;SDS011;60646;55.802;37.032;2022-08-19T00:26:06;5.70;;;2.92;;
67514;SDS011;60646;55.802;37.032;2022-08-19T00:28:32;5.95;;;3.08;;
67514;SDS011;60646;55.802;37.032;2022-08-19T00:31:02;4.45;;;2.75;;
67514;SDS011;60646;55.802;37.032;2022-08-19T00:33:31;7.97;;;2.83;;
67514;SDS011;60646;55.802;37.032;2022-08-19T00:35:58;4.72;;;3.00;;
67514;SDS011;60646;55.802;37.032;2022-08-19T00:38:25;5.35;;;3.05;;
67514;SDS011;60646;55.802;37.032;2022-08-19T00:40:51;5.43;;;3.17;;
67514;SDS011;60646;55.802;37.032;2022-08-19T00:43:20;5.05;;;3.10;;
67514;SDS011;60646;55.802;37.032;2022-08-19T00:45:47;6.50;;;3.33;;
67514;SDS011;60646;55.802;37.032;2022-08-19T00:48:13;7.13;;;3.17;;
67514;SDS011;60646;55.802;37.032;2022-08-19T00:50:40;5.60;;;3.35;;
67514;SDS011;60646;55.802;37.032;2022-08-19T00:53:09;5.22;;;3.05;;
67514;SDS011;60646;55.802;37.032;2022-08-19T00:55:36;5.43;;;3.20;;
67514;SDS011;60646;55.802;37.032;2022-08-19T00:58:06;4.88;;;2.95;;
67514;SDS011;60646;55.802;37.032;2022-08-19T01:00:35;4.90;;;3.00;;
67514;SDS011;60646;55.802;37.032;2022-08-19T01:03:03;5.28;;;3.15;;
67514;SDS011;60646;55.802;37.032;2022-08-19T01:05:31;4.38;;;2.95;;
67514;SDS011;60646;55.802;37.032;2022-08-19T01:07:58;4.55;;;3.10;;
67514;SDS011;60646;55.802;37.032;2022-08-19T01:10:27;5.60;;;2.85;;
67514;SDS011;60646;55.802;37.032;2022-08-19T01:12:54;4.43;;;3.00;;
67514;SDS011;60646;55.802;37.032;2022-08-19T01:15:22;4.68;;;3.05;;
67514;SDS011;60646;55.802;37.032;2022-08-19T01:17:55;4.22;;;2.92;;
67514;SDS011;60646;55.802;37.032;2022-08-19T01:20:24;4.82;;;3.13;;
67514;SDS011;60646;55.802;37.032;2022-08-19T01:22:54;7.13;;;3.13;;
67514;SDS011;60646;55.802;37.032;2022-08-19T01:25:26;3.92;;;2.90;;
67514;SDS011;60646;55.802;37.032;2022-08-19T01:27:56;3.97;;;2.90;;
67514;SDS011;60646;55.802;37.032;2022-08-19T01:30:27;5.28;;;2.97;;
67514;SDS011;60646;55.802;37.032;2022-08-19T01:32:55;3.38;;;2.58;;
67514;SDS011;60646;55.802;37.032;2022-08-19T01:35:23;4.07;;;2.55;;
67514;SDS011;60646;55.802;37.032;2022-08-19T01:37:51;5.72;;;2.83;;
67514;SDS011;60646;55.802;37.032;2022-08-19T01:40:22;3.47;;;2.10;;
67514;SDS011;60646;55.802;37.032;2022-08-19T01:42:50;6.30;;;2.78;;
67514;SDS011;60646;55.802;37.032;2022-08-19T01:45:18;4.28;;;2.67;;
67514;SDS011;60646;55.802;37.032;2022-08-19T01:47:45;4.55;;;3.10;;
67514;SDS011;60646;55.802;37.032;2022-08-19T01:50:11;4.97;;;3.20;;
67514;SDS011;60646;55.802;37.032;2022-08-19T01:52:39;4.70;;;2.97;;
67514;SDS011;60646;55.802;37.032;2022-08-19T01:55:07;4.70;;;2.90;;
67514;SDS011;60646;55.802;37.032;2022-08-19T01:57:35;5.28;;;2.72;;
67514;SDS011;60646;55.802;37.032;2022-08-19T02:00:03;3.85;;;2.70;;
67514;SDS011;60646;55.802;37.032;2022-08-19T02:02:37;4.32;;;2.85;;
67514;SDS011;60646;55.802;37.032;2022-08-19T02:05:03;4.40;;;2.75;;
67514;SDS011;60646;55.802;37.032;2022-08-19T02:07:30;3.60;;;2.80;;
67514;SDS011;60646;55.802;37.032;2022-08-19T02:09:55;5.15;;;2.83;;
67514;SDS011;60646;55.802;37.032;2022-08-19T02:12:22;4.63;;;2.90;;
67514;SDS011;60646;55.802;37.032;2022-08-19T02:14:48;5.32;;;2.88;;
67514;SDS011;60646;55.802;37.032;2022-08-19T02:17:14;4.18;;;2.88;;
67514;SDS011;60646;55.802;37.032;2022-08-19T02:19:58;3.72;;;2.88;;
67514;SDS011;60646;55.802;37.032;2022-08-19T02:22:24;4.78;;;3.17;;
67514;SDS011;60646;55.802;37.032;2022-08-19T02:24:51;5.72;;;3.67;;
67514;SDS011;60646;55.802;37.032;2022-08-19T02:27:18;5.20;;;3.30;;
67514;SDS011;60646;55.802;37.032;2022-08-19T02:29:45;7.50;;;3.72;;
67514;SDS011;60646;55.802;37.032;2022-08-19T02:32:12;5.50;;;3.17;;
67514;SDS011;60646;55.802;37.032;2022-08-19T02:34:38;6.63;;;3.55;;
67514;SDS011;60646;55.802;37.032;2022-08-19T02:37:05;4.60;;;3.30;;
67514;SDS011;60646;55.802;37.032;2022-08-19T02:39:31;4.82;;;3.20;;
67514;SDS011;60646;55.802;37.032;2022-08-19T02:41:56;7.93;;;4.03;;
67514;SDS011;60646;55.802;37.032;2022-08-19T02:44:24;6.03;;;3.60;;
67514;SDS011;60646;55.802;37.032;2022-08-19T02:46:50;7.65;;;3.90;;
67514;SDS011;60646;55.802;37.032;2022-08-19T02:49:16;6.30;;;4.30;;
67514;SDS011;60646;55.802;37.032;2022-08-19T02:51:42;9.02;;;4.40;;
67514;SDS011;60646;55.802;37.032;2022-08-19T02:54:10;5.70;;;3.83;;
67514;SDS011;60646;55.802;37.032;2022-08-19T02:56:38;6.43;;;4.10;;
67514;SDS011;60646;55.802;37.032;2022-08-19T02:59:05;6.97;;;3.58;;
67514;SDS011;60646;55.802;37.032;2022-08-19T03:01:35;5.88;;;3.40;;
67514;SDS011;60646;55.802;37.032;2022-08-19T03:04:04;8.13;;;3.95;;
67514;SDS011;60646;55.802;37.032;2022-08-19T03:06:31;6.10;;;3.70;;
67514;SDS011;60646;55.802;37.032;2022-08-19T03:08:57;5.90;;;4.05;;
67514;SDS011;60646;55.802;37.032;2022-08-19T03:11:24;7.82;;;3.88;;
67514;SDS011;60646;55.802;37.032;2022-08-19T03:13:52;7.90;;;3.85;;
67514;SDS011;60646;55.802;37.032;2022-08-19T03:16:19;7.43;;;3.40;;
67514;SDS011;60646;55.802;37.032;2022-08-19T03:18:47;5.57;;;3.63;;
67514;SDS011;60646;55.802;37.032;2022-08-19T03:21:17;8.48;;;3.95;;
67514;SDS011;60646;55.802;37.032;2022-08-19T03:23:47;7.78;;;3.95;;
67514;SDS011;60646;55.802;37.032;2022-08-19T03:26:13;6.00;;;3.72;;
67514;SDS011;60646;55.802;37.032;2022-08-19T03:28:40;7.43;;;3.92;;
67514;SDS011;60646;55.802;37.032;2022-08-19T03:31:12;5.93;;;3.58;;
67514;SDS011;60646;55.802;37.032;2022-08-19T03:33:39;5.65;;;3.60;;
67514;SDS011;60646;55.802;37.032;2022-08-19T03:36:07;4.95;;;3.58;;
67514;SDS011;60646;55.802;37.032;2022-08-19T03:38:40;6.25;;;4.00;;
67514;SDS011;60646;55.802;37.032;2022-08-19T03:41:09;6.30;;;3.80;;
67514;SDS011;60646;55.802;37.032;2022-08-19T03:43:38;6.20;;;3.58;;
67514;SDS011;60646;55.802;37.032;2022-08-19T03:46:15;6.47;;;3.75;;
67514;SDS011;60646;55.802;37.032;2022-08-19T03:48:46;6.28;;;3.60;;
67514;SDS011;60646;55.802;37.032;2022-08-19T03:51:16;5.18;;;3.53;;
67514;SDS011;60646;55.802;37.032;2022-08-19T03:53:45;5.55;;;3.70;;
67514;SDS011;60646;55.802;37.032;2022-08-19T03:56:11;5.63;;;3.45;;
67514;SDS011;60646;55.802;37.032;2022-08-19T03:58:38;6.65;;;3.40;;
67514;SDS011;60646;55.802;37.032;2022-08-19T04:01:09;9.80;;;3.90;;
67514;SDS011;60646;55.802;37.032;2022-08-19T04:03:36;6.32;;;3.70;;
67514;SDS011;60646;55.802;37.032;2022-08-19T04:06:36;6.90;;;3.38;;
67514;SDS011;60646;55.802;37.032;2022-08-19T04:08:56;4.50;;;3.30;;
67514;SDS011;60646;55.802;37.032;2022-08-19T04:11:26;7.60;;;3.45;;
67514;SDS011;60646;55.802;37.032;2022-08-19T04:14:05;7.43;;;3.72;;
67514;SDS011;60646;55.802;37.032;2022-08-19T04:16:30;9.05;;;3.60;;
67514;SDS011;60646;55.802;37.032;2022-08-19T04:18:59;5.53;;;3.20;;
67514;SDS011;60646;55.802;37.032;2022-08-19T04:21:26;6.88;;;3.13;;
67514;SDS011;60646;55.802;37.032;2022-08-19T04:23:53;4.60;;;3.10;;
67514;SDS011;60646;55.802;37.032;2022-08-19T04:30:23;6.15;;;3.28;;
67514;SDS011;60646;55.802;37.032;2022-08-19T04:32:49;4.85;;;3.40;;
67514;SDS011;60646;55.802;37.032;2022-08-19T04:35:15;5.38;;;3.35;;
67514;SDS011;60646;55.802;37.032;2022-08-19T04:37:41;4.45;;;3.17;;
67514;SDS011;60646;55.802;37.032;2022-08-19T04:40:07;8.63;;;3.38;;
67514;SDS011;60646;55.802;37.032;2022-08-19T04:42:56;5.30;;;2.95;;
67514;SDS011;60646;55.802;37.032;2022-08-19T04:45:22;8.52;;;3.83;;
67514;SDS011;60646;55.802;37.032;2022-08-19T04:47:48;4.53;;;2.53;;
67514;SDS011;60646;55.802;37.032;2022-08-19T04:50:13;4.72;;;3.13;;
67514;SDS011;60646;55.802;37.032;2022-08-19T04:52:40;7.13;;;3.10;;
67514;SDS011;60646;55.802;37.032;2022-08-19T04:55:09;5.03;;;2.92;;
67514;SDS011;60646;55.802;37.032;2022-08-19T04:57:45;5.97;;;3.45;;
67514;SDS011;60646;55.802;37.032;2022-08-19T05:00:45;6.35;;;3.45;;
67514;SDS011;60646;55.802;37.032;2022-08-19T05:03:11;5.40;;;3.08;;
67514;SDS011;60646;55.802;37.032;2022-08-19T05:05:39;4.65;;;2.85;;
67514;SDS011;60646;55.802;37.032;2022-08-19T05:08:06;5.45;;;3.10;;
67514;SDS011;60646;55.802;37.032;2022-08-19T05:10:34;5.95;;;3.28;;
67514;SDS011;60646;55.802;37.032;2022-08-19T05:13:05;5.75;;;3.83;;
67514;SDS011;60646;55.802;37.032;2022-08-19T05:15:56;5.50;;;3.17;;
67514;SDS011;60646;55.802;37.032;2022-08-19T05:18:23;5.90;;;3.13;;
67514;SDS011;60646;55.802;37.032;2022-08-19T05:21:08;6.75;;;3.15;;
67514;SDS011;60646;55.802;37.032;2022-08-19T05:23:54;6.47;;;3.08;;
67514;SDS011;60646;55.802;37.032;2022-08-19T05:26:19;5.93;;;3.05;;
67514;SDS011;60646;55.802;37.032;2022-08-19T05:28:46;6.53;;;3.60;;
67514;SDS011;60646;55.802;37.032;2022-08-19T05:31:12;14.93;;;3.28;;
67514;SDS011;60646;55.802;37.032;2022-08-19T05:33:38;8.23;;;3.70;;
67514;SDS011;60646;55.802;37.032;2022-08-19T05:36:05;5.40;;;2.88;;
67514;SDS011;60646;55.802;37.032;2022-08-19T05:38:33;8.70;;;2.63;;
67514;SDS011;60646;55.802;37.032;2022-08-19T05:40:59;10.15;;;3.53;;
67514;SDS011;60646;55.802;37.032;2022-08-19T05:43:24;5.57;;;2.83;;
67514;SDS011;60646;55.802;37.032;2022-08-19T05:45:50;8.80;;;3.30;;
67514;SDS011;60646;55.802;37.032;2022-08-19T05:48:16;6.90;;;3.13;;
67514;SDS011;60646;55.802;37.032;2022-08-19T05:50:45;5.65;;;2.83;;
67514;SDS011;60646;55.802;37.032;2022-08-19T05:53:12;4.55;;;2.60;;
67514;SDS011;60646;55.802;37.032;2022-08-19T05:55:38;5.15;;;2.47;;
67514;SDS011;60646;55.802;37.032;2022-08-19T05:58:04;4.97;;;2.63;;
67514;SDS011;60646;55.802;37.032;2022-08-19T06:00:33;3.45;;;2.33;;
67514;SDS011;60646;55.802;37.032;2022-08-19T06:03:00;5.68;;;1.98;;
67514;SDS011;60646;55.802;37.032;2022-08-19T06:05:31;5.85;;;2.90;;
67514;SDS011;60646;55.802;37.032;2022-08-19T06:07:57;5.35;;;3.03;;
67514;SDS011;60646;55.802;37.032;2022-08-19T06:10:24;4.80;;;2.60;;
67514;SDS011;60646;55.802;37.032;2022-08-19T06:12:51;3.78;;;2.50;;
67514;SDS011;60646;55.802;37.032;2022-08-19T06:15:18;4.55;;;2.55;;
67514;SDS011;60646;55.802;37.032;2022-08-19T06:17:43;3.95;;;2.38;;
67514;SDS011;60646;55.802;37.032;2022-08-19T06:20:10;6.15;;;2.47;;
67514;SDS011;60646;55.802;37.032;2022-08-19T06:22:42;4.45;;;2.35;;
67514;SDS011;60646;55.802;37.032;2022-08-19T06:27:37;4.18;;;2.20;;
67514;SDS011;60646;55.802;37.032;2022-08-19T06:30:03;3.63;;;2.20;;
67514;SDS011;60646;55.802;37.032;2022-08-19T06:32:30;4.70;;;2.50;;
67514;SDS011;60646;55.802;37.032;2022-08-19T06:34:56;7.63;;;2.40;;
67514;SDS011;60646;55.802;37.032;2022-08-19T06:37:22;4.22;;;2.03;;
67514;SDS011;60646;55.802;37.032;2022-08-19T06:39:47;3.50;;;2.08;;
67514;SDS011;60646;55.802;37.032;2022-08-19T06:42:13;2.53;;;1.90;;
67514;SDS011;60646;55.802;37.032;2022-08-19T06:44:42;5.40;;;2.35;;
67514;SDS011;60646;55.802;37.032;2022-08-19T06:47:10;4.97;;;2.20;;
67514;SDS011;60646;55.802;37.032;2022-08-19T06:49:37;3.13;;;2.08;;
67514;SDS011;60646;55.802;37.032;2022-08-19T06:52:03;5.32;;;2.70;;
67514;SDS011;60646;55.802;37.032;2022-08-19T06:54:30;4.55;;;2.50;;
67514;SDS011;60646;55.802;37.032;2022-08-19T06:56:59;3.65;;;2.40;;
67514;SDS011;60646;55.802;37.032;2022-08-19T06:59:29;5.53;;;2.03;;
67514;SDS011;60646;55.802;37.032;2022-08-19T07:01:57;7.15;;;2.55;;
67514;SDS011;60646;55.802;37.032;2022-08-19T07:04:26;4.13;;;2.45;;
67514;SDS011;60646;55.802;37.032;2022-08-19T07:06:57;3.78;;;2.15;;
67514;SDS011;60646;55.802;37.032;2022-08-19T07:09:25;3.88;;;2.38;;
67514;SDS011;60646;55.802;37.032;2022-08-19T07:11:52;4.78;;;2.60;;
67514;SDS011;60646;55.802;37.032;2022-08-19T07:14:19;4.47;;;2.22;;
67514;SDS011;60646;55.802;37.032;2022-08-19T07:16:49;5.22;;;2.28;;
67514;SDS011;60646;55.802;37.032;2022-08-19T07:19:17;4.97;;;2.55;;
67514;SDS011;60646;55.802;37.032;2022-08-19T07:21:43;5.53;;;2.25;;
67514;SDS011;60646;55.802;37.032;2022-08-19T07:24:09;8.52;;;2.85;;
67514;SDS011;60646;55.802;37.032;2022-08-19T07:26:39;3.78;;;2.53;;
67514;SDS011;60646;55.802;37.032;2022-08-19T07:29:26;3.17;;;2.08;;
67514;SDS011;60646;55.802;37.032;2022-08-19T07:31:53;4.40;;;2.35;;
67514;SDS011;60646;55.802;37.032;2022-08-19T07:34:22;6.35;;;2.30;;
67514;SDS011;60646;55.802;37.032;2022-08-19T07:36:48;5.35;;;2.45;;
67514;SDS011;60646;55.802;37.032;2022-08-19T07:39:16;9.10;;;2.50;;
67514;SDS011;60646;55.802;37.032;2022-08-19T07:41:45;6.95;;;2.40;;
67514;SDS011;60646;55.802;37.032;2022-08-19T07:44:12;6.35;;;2.92;;
67514;SDS011;60646;55.802;37.032;2022-08-19T07:46:40;4.88;;;2.42;;
67514;SDS011;60646;55.802;37.032;2022-08-19T07:49:09;4.50;;;2.55;;
67514;SDS011;60646;55.802;37.032;2022-08-19T07:51:43;6.63;;;2.72;;
67514;SDS011;60646;55.802;37.032;2022-08-19T07:54:09;6.30;;;2.20;;
67514;SDS011;60646;55.802;37.032;2022-08-19T07:56:36;3.63;;;2.22;;
67514;SDS011;60646;55.802;37.032;2022-08-19T07:59:02;7.18;;;2.75;;
67514;SDS011;60646;55.802;37.032;2022-08-19T08:01:28;5.63;;;2.70;;
67514;SDS011;60646;55.802;37.032;2022-08-19T08:03:54;5.07;;;2.85;;
67514;SDS011;60646;55.802;37.032;2022-08-19T08:06:40;5.65;;;2.65;;
67514;SDS011;60646;55.802;37.032;2022-08-19T08:09:29;5.10;;;2.45;;
67514;SDS011;60646;55.802;37.032;2022-08-19T08:12:03;4.03;;;2.40;;
67514;SDS011;60646;55.802;37.032;2022-08-19T08:14:33;4.53;;;2.47;;
67514;SDS011;60646;55.802;37.032;2022-08-19T08:17:04;4.60;;;2.30;;
67514;SDS011;60646;55.802;37.032;2022-08-19T08:19:31;3.95;;;2.55;;
67514;SDS011;60646;55.802;37.032;2022-08-19T08:21:58;3.30;;;2.40;;
67514;SDS011;60646;55.802;37.032;2022-08-19T08:24:25;3.72;;;2.53;;
67514;SDS011;60646;55.802;37.032;2022-08-19T08:26:53;13.52;;;3.47;;
67514;SDS011;60646;55.802;37.032;2022-08-19T08:29:18;7.60;;;2.60;;
67514;SDS011;60646;55.802;37.032;2022-08-19T08:31:45;6.50;;;2.70;;
67514;SDS011;60646;55.802;37.032;2022-08-19T08:34:12;3.75;;;2.30;;
67514;SDS011;60646;55.802;37.032;2022-08-19T08:36:40;4.55;;;2.38;;
67514;SDS011;60646;55.802;37.032;2022-08-19T08:39:08;4.10;;;2.58;;
67514;SDS011;60646;55.802;37.032;2022-08-19T08:41:38;3.90;;;2.67;;
67514;SDS011;60646;55.802;37.032;2022-08-19T08:44:17;6.03;;;2.50;;
67514;SDS011;60646;55.802;37.032;2022-08-19T08:49:26;3.63;;;2.08;;
67514;SDS011;60646;55.802;37.032;2022-08-19T08:52:18;2.92;;;1.80;;
67514;SDS011;60646;55.802;37.032;2022-08-19T08:54:48;3.58;;;2.10;;
67514;SDS011;60646;55.802;37.032;2022-08-19T08:57:18;3.05;;;1.83;;
67514;SDS011;60646;55.802;37.032;2022-08-19T08:59:49;4.38;;;1.88;;
67514;SDS011;60646;55.802;37.032;2022-08-19T09:02:17;3.58;;;1.80;;
67514;SDS011;60646;55.802;37.032;2022-08-19T09:04:44;3.85;;;1.88;;
67514;SDS011;60646;55.802;37.032;2022-08-19T09:07:17;3.13;;;2.08;;
67514;SDS011;60646;55.802;37.032;2022-08-19T09:09:57;4.15;;;1.70;;
67514;SDS011;60646;55.802;37.032;2022-08-19T09:15:09;5.05;;;2.30;;
67514;SDS011;60646;55.802;37.032;2022-08-19T09:17:37;3.72;;;2.00;;
67514;SDS011;60646;55.802;37.032;2022-08-19T09:22:36;3.40;;;2.10;;
67514;SDS011;60646;55.802;37.032;2022-08-19T09:25:04;2.70;;;1.95;;
67514;SDS011;60646;55.802;37.032;2022-08-19T09:27:32;5.53;;;2.40;;
67514;SDS011;60646;55.802;37.032;2022-08-19T09:29:58;3.33;;;2.05;;
67514;SDS011;60646;55.802;37.032;2022-08-19T09:32:24;2.53;;;2.20;;
67514;SDS011;60646;55.802;37.032;2022-08-19T09:34:51;3.47;;;2.28;;
67514;SDS011;60646;55.802;37.032;2022-08-19T09:37:20;4.43;;;2.42;;
67514;SDS011;60646;55.802;37.032;2022-08-19T09:39:47;6.63;;;2.70;;
67514;SDS011;60646;55.802;37.032;2022-08-19T09:42:13;4.82;;;2.58;;
67514;SDS011;60646;55.802;37.032;2022-08-19T09:44:40;8.90;;;2.92;;
67514;SDS011;60646;55.802;37.032;2022-08-19T09:47:06;16.75;;;2.70;;
67514;SDS011;60646;55.802;37.032;2022-08-19T09:49:33;5.28;;;2.53;;
67514;SDS011;60646;55.802;37.032;2022-08-19T09:51:59;5.13;;;3.00;;
67514;SDS011;60646;55.802;37.032;2022-08-19T09:54:25;8.02;;;2.92;;
67514;SDS011;60646;55.802;37.032;2022-08-19T09:56:52;8.82;;;2.83;;
67514;SDS011;60646;55.802;37.032;2022-08-19T09:59:18;5.05;;;2.70;;
67514;SDS011;60646;55.802;37.032;2022-08-19T10:01:44;4.93;;;2.80;;
67514;SDS011;60646;55.802;37.032;2022-08-19T10:04:10;3.20;;;2.60;;
67514;SDS011;60646;55.802;37.032;2022-08-19T10:06:37;4.22;;;2.40;;
67514;SDS011;60646;55.802;37.032;2022-08-19T10:09:05;8.48;;;2.45;;
67514;SDS011;60646;55.802;37.032;2022-08-19T10:11:33;4.78;;;2.50;;
67514;SDS011;60646;55.802;37.032;2022-08-19T10:14:01;3.55;;;2.38;;
67514;SDS011;60646;55.802;37.032;2022-08-19T10:16:27;6.07;;;2.75;;
67514;SDS011;60646;55.802;37.032;2022-08-19T10:18:53;4.78;;;2.67;;
67514;SDS011;60646;55.802;37.032;2022-08-19T10:21:24;9.25;;;2.58;;
67514;SDS011;60646;55.802;37.032;2022-08-19T10:23:55;4.63;;;2.53;;
67514;SDS011;60646;55.802;37.032;2022-08-19T10:26:24;4.05;;;2.33;;
67514;SDS011;60646;55.802;37.032;2022-08-19T10:28:52;4.10;;;2.10;;
67514;SDS011;60646;55.802;37.032;2022-08-19T10:31:19;3.08;;;2.08;;
67514;SDS011;60646;55.802;37.032;2022-08-19T10:34:06;3.15;;;1.92;;
67514;SDS011;60646;55.802;37.032;2022-08-19T10:36:33;4.68;;;2.20;;
67514;SDS011;60646;55.802;37.032;2022-08-19T10:39:01;3.85;;;2.30;;
67514;SDS011;60646;55.802;37.032;2022-08-19T10:41:34;8.77;;;2.10;;
67514;SDS011;60646;55.802;37.032;2022-08-19T10:44:03;4.57;;;2.38;;
67514;SDS011;60646;55.802;37.032;2022-08-19T10:46:35;5.30;;;2.15;;
67514;SDS011;60646;55.802;37.032;2022-08-19T10:49:04;4.70;;;2.60;;
67514;SDS011;60646;55.802;37.032;2022-08-19T10:51:30;6.53;;;2.33;;
67514;SDS011;60646;55.802;37.032;2022-08-19T10:54:15;3.65;;;2.08;;
67514;SDS011;60646;55.802;37.032;2022-08-19T10:56:41;3.42;;;2.03;;
67514;SDS011;60646;55.802;37.032;2022-08-19T10:59:24;3.72;;;2.20;;
67514;SDS011;60646;55.802;37.032;2022-08-19T11:01:53;7.57;;;3.13;;
67514;SDS011;60646;55.802;37.032;2022-08-19T11:04:20;4.78;;;2.30;;
67514;SDS011;60646;55.802;37.032;2022-08-19T11:06:48;2.85;;;2.15;;
67514;SDS011;60646;55.802;37.032;2022-08-19T11:09:15;4.05;;;2.80;;
67514;SDS011;60646;55.802;37.032;2022-08-19T11:11:43;3.20;;;2.50;;
67514;SDS011;60646;55.802;37.032;2022-08-19T11:14:10;11.90;;;2.53;;
67514;SDS011;60646;55.802;37.032;2022-08-19T11:16:39;3.80;;;2.50;;
67514;SDS011;60646;55.802;37.032;2022-08-19T11:19:07;6.03;;;3.10;;
67514;SDS011;60646;55.802;37.032;2022-08-19T11:21:35;6.32;;;2.97;;
67514;SDS011;60646;55.802;37.032;2022-08-19T11:24:04;9.45;;;3.17;;
67514;SDS011;60646;55.802;37.032;2022-08-19T11:26:35;5.35;;;3.00;;
67514;SDS011;60646;55.802;37.032;2022-08-19T11:29:03;4.28;;;3.15;;
67514;SDS011;60646;55.802;37.032;2022-08-19T11:31:32;4.63;;;2.92;;
67514;SDS011;60646;55.802;37.032;2022-08-19T11:34:03;11.85;;;2.75;;
67514;SDS011;60646;55.802;37.032;2022-08-19T11:36:31;4.50;;;2.53;;
67514;SDS011;60646;55.802;37.032;2022-08-19T11:39:00;6.13;;;3.20;;
67514;SDS011;60646;55.802;37.032;2022-08-19T11:41:27;4.88;;;2.90;;
67514;SDS011;60646;55.802;37.032;2022-08-19T11:43:53;6.93;;;2.97;;
67514;SDS011;60646;55.802;37.032;2022-08-19T11:46:20;5.30;;;2.90;;
67514;SDS011;60646;55.802;37.032;2022-08-19T11:48:48;7.22;;;2.88;;
67514;SDS011;60646;55.802;37.032;2022-08-19T11:51:17;4.35;;;2.33;;
67514;SDS011;60646;55.802;37.032;2022-08-19T11:53:45;7.80;;;2.53;;
67514;SDS011;60646;55.802;37.032;2022-08-19T11:56:30;7.43;;;2.55;;
67514;SDS011;60646;55.802;37.032;2022-08-19T11:58:56;5.10;;;1.95;;
67514;SDS011;60646;55.802;37.032;2022-08-19T12:01:22;4.25;;;2.10;;
67514;SDS011;60646;55.802;37.032;2022-08-19T12:03:50;2.13;;;1.33;;
67514;SDS011;60646;55.802;37.032;2022-08-19T12:06:19;6.10;;;1.77;;
67514;SDS011;60646;55.802;37.032;2022-08-19T12:08:49;2.85;;;1.90;;
67514;SDS011;60646;55.802;37.032;2022-08-19T12:11:15;5.20;;;1.70;;
67514;SDS011;60646;55.802;37.032;2022-08-19T12:13:41;7.15;;;2.03;;
67514;SDS011;60646;55.802;37.032;2022-08-19T12:16:10;4.93;;;1.40;;
67514;SDS011;60646;55.802;37.032;2022-08-19T12:18:39;3.65;;;1.70;;
67514;SDS011;60646;55.802;37.032;2022-08-19T12:21:08;2.13;;;1.60;;
67514;SDS011;60646;55.802;37.032;2022-08-19T12:23:35;7.85;;;1.60;;
67514;SDS011;60646;55.802;37.032;2022-08-19T12:26:02;2.00;;;1.60;;
67514;SDS011;60646;55.802;37.032;2022-08-19T12:28:29;2.80;;;1.52;;
67514;SDS011;60646;55.802;37.032;2022-08-19T12:30:55;1.92;;;1.52;;
67514;SDS011;60646;55.802;37.032;2022-08-19T12:33:22;3.40;;;1.48;;
67514;SDS011;60646;55.802;37.032;2022-08-19T12:35:50;2.53;;;1.58;;
67514;SDS011;60646;55.802;37.032;2022-08-19T12:38:17;5.40;;;1.80;;
67514;SDS011;60646;55.802;37.032;2022-08-19T12:40:47;14.95;;;2.17;;
67514;SDS011;60646;55.802;37.032;2022-08-19T12:43:14;8.30;;;2.13;;
67514;SDS011;60646;55.802;37.032;2022-08-19T12:45:45;3.00;;;1.80;;
67514;SDS011;60646;55.802;37.032;2022-08-19T12:48:11;4.82;;;1.83;;
67514;SDS011;60646;55.802;37.032;2022-08-19T12:50:42;5.28;;;1.77;;
67514;SDS011;60646;55.802;37.032;2022-08-19T12:53:12;3.13;;;1.98;;
67514;SDS011;60646;55.802;37.032;2022-08-19T12:55:38;4.00;;;1.80;;
67514;SDS011;60646;55.802;37.032;2022-08-19T12:58:04;4.65;;;2.22;;
67514;SDS011;60646;55.802;37.032;2022-08-19T13:00:30;3.83;;;2.28;;
67514;SDS011;60646;55.802;37.032;2022-08-19T13:02:58;3.33;;;2.40;;
67514;SDS011;60646;55.802;37.032;2022-08-19T13:05:29;4.70;;;2.58;;
67514;SDS011;60646;55.802;37.032;2022-08-19T13:08:15;4.03;;;2.87;;
67514;SDS011;60646;55.802;37.032;2022-08-19T13:10:42;2.97;;;2.58;;
67514;SDS011;60646;55.802;37.032;2022-08-19T13:13:08;3.25;;;2.50;;
67514;SDS011;60646;55.802;37.032;2022-08-19T13:15:35;4.93;;;2.60;;
67514;SDS011;60646;55.802;37.032;2022-08-19T13:18:08;2.97;;;2.55;;
67514;SDS011;60646;55.802;37.032;2022-08-19T13:20:36;3.03;;;2.10;;
67514;SDS011;60646;55.802;37.032;2022-08-19T13:23:03;3.70;;;2.15;;
67514;SDS011;60646;55.802;37.032;2022-08-19T13:25:30;3.25;;;1.98;;
67514;SDS011;60646;55.802;37.032;2022-08-19T13:27:55;3.05;;;1.60;;
67514;SDS011;60646;55.802;37.032;2022-08-19T13:30:21;3.15;;;1.80;;
67514;SDS011;60646;55.802;37.032;2022-08-19T13:33:06;3.53;;;2.03;;
67514;SDS011;60646;55.802;37.032;2022-08-19T13:35:36;5.30;;;1.80;;
67514;SDS011;60646;55.802;37.032;2022-08-19T13:38:03;2.50;;;1.75;;
67514;SDS011;60646;55.802;37.032;2022-08-19T13:40:30;4.03;;;2.05;;
67514;SDS011;60646;55.802;37.032;2022-08-19T13:42:58;3.20;;;1.83;;
67514;SDS011;60646;55.802;37.032;2022-08-19T13:45:26;6.60;;;1.70;;
67514;SDS011;60646;55.802;37.032;2022-08-19T13:47:54;3.75;;;2.45;;
67514;SDS011;60646;55.802;37.032;2022-08-19T13:50:26;4.13;;;2.13;;
67514;SDS011;60646;55.802;37.032;2022-08-19T13:52:54;3.55;;;1.80;;
67514;SDS011;60646;55.802;37.032;2022-08-19T13:55:21;3.38;;;2.30;;
67514;SDS011;60646;55.802;37.032;2022-08-19T13:57:51;2.85;;;2.00;;
67514;SDS011;60646;55.802;37.032;2022-08-19T14:00:26;2.88;;;2.10;;
67514;SDS011;60646;55.802;37.032;2022-08-19T14:02:54;2.65;;;2.00;;
67514;SDS011;60646;55.802;37.032;2022-08-19T14:05:21;3.08;;;2.17;;
67514;SDS011;60646;55.802;37.032;2022-08-19T14:07:47;2.35;;;2.10;;
67514;SDS011;60646;55.802;37.032;2022-08-19T14:10:13;3.38;;;2.58;;
67514;SDS011;60646;55.802;37.032;2022-08-19T14:12:40;8.52;;;3.17;;
67514;SDS011;60646;55.802;37.032;2022-08-19T14:15:06;3.63;;;2.90;;
67514;SDS011;60646;55.802;37.032;2022-08-19T14:17:33;8.45;;;4.78;;
67514;SDS011;60646;55.802;37.032;2022-08-19T14:20:03;6.60;;;4.20;;
67514;SDS011;60646;55.802;37.032;2022-08-19T14:22:37;11.90;;;5.53;;
67514;SDS011;60646;55.802;37.032;2022-08-19T14:25:06;11.00;;;4.88;;
67514;SDS011;60646;55.802;37.032;2022-08-19T14:27:34;11.13;;;5.63;;
67514;SDS011;60646;55.802;37.032;2022-08-19T14:30:01;7.28;;;4.53;;
67514;SDS011;60646;55.802;37.032;2022-08-19T14:32:32;5.85;;;3.83;;
67514;SDS011;60646;55.802;37.032;2022-08-19T14:35:00;4.53;;;3.40;;
67514;SDS011;60646;55.802;37.032;2022-08-19T14:37:28;4.43;;;3.10;;
67514;SDS011;60646;55.802;37.032;2022-08-19T14:39:54;5.32;;;2.60;;
67514;SDS011;60646;55.802;37.032;2022-08-19T14:42:20;6.38;;;2.63;;
67514;SDS011;60646;55.802;37.032;2022-08-19T14:44:47;4.57;;;2.63;;
67514;SDS011;60646;55.802;37.032;2022-08-19T14:47:13;11.15;;;2.70;;
67514;SDS011;60646;55.802;37.032;2022-08-19T14:49:38;3.25;;;2.47;;
67514;SDS011;60646;55.802;37.032;2022-08-19T14:52:05;6.32;;;2.97;;
67514;SDS011;60646;55.802;37.032;2022-08-19T14:54:31;4.30;;;2.45;;
67514;SDS011;60646;55.802;37.032;2022-08-19T14:56:57;4.95;;;2.78;;